sensor_id;sensor_type;location;lat;lon;timestamp;P1;durP1;ratioP1;P2;durP2;ratioP2
53313;SDS011;39202;51.468;7.146;2023-03-14T00:04:00;0.50;;;0.50;;
53313;SDS011;39202;51.468;7.146;2023-03-14T00:09:05;0.50;;;0.50;;
53313;SDS011;39202;51.468;7.146;2023-03-14T00:14:07;0.50;;;0.50;;
53313;SDS011;39202;51.468;7.146;2023-03-14T00:19:10;0.50;;;0.50;;
53313;SDS011;39202;51.468;7.146;2023-03-14T00:24:11;0.60;;;0.60;;
53313;SDS011;39202;51.468;7.146;2023-03-14T00:29:13;0.40;;;0.40;;
53313;SDS011;39202;51.468;7.146;2023-03-14T00:34:16;0.50;;;0.50;;
53313;SDS011;39202;51.468;7.146;2023-03-14T00:39:18;0.50;;;0.50;;
53313;SDS011;39202;51.468;7.146;2023-03-14T00:44:19;0.40;;;0.40;;
53313;SDS011;39202;51.468;7.146;2023-03-14T00:49:23;0.50;;;0.50;;
53313;SDS011;39202;51.468;7.146;2023-03-14T00:54:25;0.50;;;0.50;;
53313;SDS011;39202;51.468;7.146;2023-03-14T00:59:26;0.50;;;0.50;;
53313;SDS011;39202;51.468;7.146;2023-03-14T01:04:30;0.47;;;0.47;;
53313;SDS011;39202;51.468;7.146;2023-03-14T01:09:31;0.50;;;0.50;;
53313;SDS011;39202;51.468;7.146;2023-03-14T01:14:33;0.50;;;0.50;;
53313;SDS011;39202;51.468;7.146;2023-03-14T01:19:37;0.50;;;0.50;;
53313;SDS011;39202;51.468;7.146;2023-03-14T01:24:39;0.40;;;0.40;;
53313;SDS011;39202;51.468;7.146;2023-03-14T01:29:40;0.32;;;0.32;;
53313;SDS011;39202;51.468;7.146;2023-03-14T01:34:43;0.45;;;0.45;;
53313;SDS011;39202;51.468;7.146;2023-03-14T01:39:46;0.40;;;0.40;;
53313;SDS011;39202;51.468;7.146;2023-03-14T01:44:48;0.40;;;0.40;;
53313;SDS011;39202;51.468;7.146;2023-03-14T01:49:53;0.30;;;0.30;;
53313;SDS011;39202;51.468;7.146;2023-03-14T01:54:59;0.63;;;0.45;;
53313;SDS011;39202;51.468;7.146;2023-03-14T02:00:05;0.50;;;0.50;;
53313;SDS011;39202;51.468;7.146;2023-03-14T02:05:14;0.40;;;0.40;;
53313;SDS011;39202;51.468;7.146;2023-03-14T02:10:19;0.40;;;0.40;;
53313;SDS011;39202;51.468;7.146;2023-03-14T02:15:23;0.40;;;0.40;;
53313;SDS011;39202;51.468;7.146;2023-03-14T02:20:30;0.50;;;0.50;;
53313;SDS011;39202;51.468;7.146;2023-03-14T02:25:41;0.32;;;0.32;;
53313;SDS011;39202;51.468;7.146;2023-03-14T02:30:50;0.40;;;0.40;;
53313;SDS011;39202;51.468;7.146;2023-03-14T02:35:52;0.50;;;0.50;;
53313;SDS011;39202;51.468;7.146;2023-03-14T02:40:57;0.45;;;0.45;;
53313;SDS011;39202;51.468;7.146;2023-03-14T02:46:00;0.40;;;0.40;;
53313;SDS011;39202;51.468;7.146;2023-03-14T02:51:04;0.40;;;0.40;;
53313;SDS011;39202;51.468;7.146;2023-03-14T02:56:08;0.50;;;0.50;;
53313;SDS011;39202;51.468;7.146;2023-03-14T03:01:12;0.50;;;0.50;;
53313;SDS011;39202;51.468;7.146;2023-03-14T03:06:13;0.38;;;0.38;;
53313;SDS011;39202;51.468;7.146;2023-03-14T03:11:16;0.40;;;0.40;;
53313;SDS011;39202;51.468;7.146;2023-03-14T03:16:19;0.50;;;0.50;;
53313;SDS011;39202;51.468;7.146;2023-03-14T03:21:21;0.40;;;0.40;;
53313;SDS011;39202;51.468;7.146;2023-03-14T03:26:23;0.40;;;0.40;;
53313;SDS011;39202;51.468;7.146;2023-03-14T03:31:26;0.40;;;0.40;;
53313;SDS011;39202;51.468;7.146;2023-03-14T03:36:28;0.50;;;0.50;;
53313;SDS011;39202;51.468;7.146;2023-03-14T03:41:30;0.50;;;0.50;;
53313;SDS011;39202;51.468;7.146;2023-03-14T03:46:34;0.50;;;0.50;;
53313;SDS011;39202;51.468;7.146;2023-03-14T03:51:36;0.40;;;0.40;;
53313;SDS011;39202;51.468;7.146;2023-03-14T03:56:37;0.52;;;0.52;;
53313;SDS011;39202;51.468;7.146;2023-03-14T04:01:40;0.47;;;0.47;;
53313;SDS011;39202;51.468;7.146;2023-03-14T04:06:42;0.40;;;0.40;;
53313;SDS011;39202;51.468;7.146;2023-03-14T04:11:44;0.40;;;0.40;;
53313;SDS011;39202;51.468;7.146;2023-03-14T04:16:47;0.40;;;0.40;;
53313;SDS011;39202;51.468;7.146;2023-03-14T04:21:49;0.50;;;0.50;;
53313;SDS011;39202;51.468;7.146;2023-03-14T04:26:50;0.40;;;0.40;;
53313;SDS011;39202;51.468;7.146;2023-03-14T04:31:53;0.40;;;0.40;;
53313;SDS011;39202;51.468;7.146;2023-03-14T04:36:55;0.50;;;0.50;;
53313;SDS011;39202;51.468;7.146;2023-03-14T04:41:57;0.30;;;0.30;;
53313;SDS011;39202;51.468;7.146;2023-03-14T04:47:00;0.40;;;0.40;;
53313;SDS011;39202;51.468;7.146;2023-03-14T04:52:01;0.40;;;0.40;;
53313;SDS011;39202;51.468;7.146;2023-03-14T04:57:03;0.40;;;0.40;;
53313;SDS011;39202;51.468;7.146;2023-03-14T05:02:06;0.40;;;0.40;;
53313;SDS011;39202;51.468;7.146;2023-03-14T05:07:08;0.45;;;0.45;;
53313;SDS011;39202;51.468;7.146;2023-03-14T05:12:10;0.40;;;0.40;;
53313;SDS011;39202;51.468;7.146;2023-03-14T05:17:13;0.45;;;0.45;;
53313;SDS011;39202;51.468;7.146;2023-03-14T05:22:16;0.50;;;0.50;;
53313;SDS011;39202;51.468;7.146;2023-03-14T05:27:18;0.40;;;0.40;;
53313;SDS011;39202;51.468;7.146;2023-03-14T05:32:21;0.50;;;0.50;;
53313;SDS011;39202;51.468;7.146;2023-03-14T05:37:23;0.30;;;0.30;;
53313;SDS011;39202;51.468;7.146;2023-03-14T05:42:25;0.50;;;0.50;;
53313;SDS011;39202;51.468;7.146;2023-03-14T05:47:28;0.35;;;0.35;;
53313;SDS011;39202;51.468;7.146;2023-03-14T05:52:29;0.40;;;0.40;;
53313;SDS011;39202;51.468;7.146;2023-03-14T05:57:31;0.63;;;0.50;;
53313;SDS011;39202;51.468;7.146;2023-03-14T06:02:34;0.47;;;0.47;;
53313;SDS011;39202;51.468;7.146;2023-03-14T06:07:36;0.30;;;0.30;;
53313;SDS011;39202;51.468;7.146;2023-03-14T06:12:38;0.50;;;0.50;;
53313;SDS011;39202;51.468;7.146;2023-03-14T06:17:41;0.40;;;0.40;;
53313;SDS011;39202;51.468;7.146;2023-03-14T06:22:43;0.30;;;0.30;;
53313;SDS011;39202;51.468;7.146;2023-03-14T06:27:45;0.40;;;0.40;;
53313;SDS011;39202;51.468;7.146;2023-03-14T06:32:48;0.40;;;0.40;;
53313;SDS011;39202;51.468;7.146;2023-03-14T06:37:49;0.47;;;0.40;;
53313;SDS011;39202;51.468;7.146;2023-03-14T06:42:51;0.30;;;0.30;;
53313;SDS011;39202;51.468;7.146;2023-03-14T06:47:54;0.50;;;0.50;;
53313;SDS011;39202;51.468;7.146;2023-03-14T06:52:56;0.40;;;0.40;;
53313;SDS011;39202;51.468;7.146;2023-03-14T06:57:58;0.50;;;0.50;;
53313;SDS011;39202;51.468;7.146;2023-03-14T07:03:01;0.40;;;0.40;;
53313;SDS011;39202;51.468;7.146;2023-03-14T07:08:03;0.32;;;0.32;;
53313;SDS011;39202;51.468;7.146;2023-03-14T07:13:05;0.50;;;0.50;;
53313;SDS011;39202;51.468;7.146;2023-03-14T07:18:08;0.30;;;0.30;;
53313;SDS011;39202;51.468;7.146;2023-03-14T07:23:10;0.40;;;0.40;;
53313;SDS011;39202;51.468;7.146;2023-03-14T07:28:12;0.52;;;0.52;;
53313;SDS011;39202;51.468;7.146;2023-03-14T07:33:15;0.70;;;0.60;;
53313;SDS011;39202;51.468;7.146;2023-03-14T07:38:17;0.40;;;0.40;;
53313;SDS011;39202;51.468;7.146;2023-03-14T07:43:19;0.40;;;0.40;;
53313;SDS011;39202;51.468;7.146;2023-03-14T07:48:22;0.32;;;0.32;;
53313;SDS011;39202;51.468;7.146;2023-03-14T07:53:25;0.50;;;0.50;;
53313;SDS011;39202;51.468;7.146;2023-03-14T07:58:26;0.63;;;0.55;;
53313;SDS011;39202;51.468;7.146;2023-03-14T08:03:29;0.50;;;0.50;;
53313;SDS011;39202;51.468;7.146;2023-03-14T08:08:31;1.45;;;0.52;;
53313;SDS011;39202;51.468;7.146;2023-03-14T08:13:33;0.75;;;0.55;;
53313;SDS011;39202;51.468;7.146;2023-03-14T08:18:36;0.57;;;0.57;;
53313;SDS011;39202;51.468;7.146;2023-03-14T08:23:38;0.63;;;0.60;;
53313;SDS011;39202;51.468;7.146;2023-03-14T08:28:40;1.02;;;0.70;;
53313;SDS011;39202;51.468;7.146;2023-03-14T08:33:43;0.90;;;0.80;;
53313;SDS011;39202;51.468;7.146;2023-03-14T08:38:45;1.20;;;0.47;;
53313;SDS011;39202;51.468;7.146;2023-03-14T08:43:46;0.40;;;0.40;;
53313;SDS011;39202;51.468;7.146;2023-03-14T08:48:49;0.65;;;0.60;;
53313;SDS011;39202;51.468;7.146;2023-03-14T08:53:51;1.45;;;0.70;;
53313;SDS011;39202;51.468;7.146;2023-03-14T08:58:53;1.45;;;0.50;;
53313;SDS011;39202;51.468;7.146;2023-03-14T09:03:56;0.63;;;0.63;;
53313;SDS011;39202;51.468;7.146;2023-03-14T09:08:58;0.80;;;0.70;;
53313;SDS011;39202;51.468;7.146;2023-03-14T09:13:59;0.55;;;0.55;;
53313;SDS011;39202;51.468;7.146;2023-03-14T09:19:02;1.35;;;0.88;;
53313;SDS011;39202;51.468;7.146;2023-03-14T09:24:05;1.33;;;1.13;;
53313;SDS011;39202;51.468;7.146;2023-03-14T09:29:07;1.08;;;0.98;;
53313;SDS011;39202;51.468;7.146;2023-03-14T09:34:10;2.47;;;1.20;;
53313;SDS011;39202;51.468;7.146;2023-03-14T09:39:12;1.15;;;1.05;;
53313;SDS011;39202;51.468;7.146;2023-03-14T09:44:14;1.45;;;1.17;;
53313;SDS011;39202;51.468;7.146;2023-03-14T09:49:21;0.90;;;0.90;;
53313;SDS011;39202;51.468;7.146;2023-03-14T09:54:30;0.95;;;0.93;;
53313;SDS011;39202;51.468;7.146;2023-03-14T09:59:35;0.70;;;0.70;;
53313;SDS011;39202;51.468;7.146;2023-03-14T10:04:40;1.27;;;1.10;;
53313;SDS011;39202;51.468;7.146;2023-03-14T10:09:44;1.38;;;0.90;;
53313;SDS011;39202;51.468;7.146;2023-03-14T10:14:50;2.65;;;0.90;;
53313;SDS011;39202;51.468;7.146;2023-03-14T10:19:55;1.02;;;0.88;;
53313;SDS011;39202;51.468;7.146;2023-03-14T10:25:00;1.02;;;0.80;;
53313;SDS011;39202;51.468;7.146;2023-03-14T10:30:04;1.10;;;1.00;;
53313;SDS011;39202;51.468;7.146;2023-03-14T10:35:19;0.80;;;0.80;;
53313;SDS011;39202;51.468;7.146;2023-03-14T10:40:24;1.42;;;0.85;;
53313;SDS011;39202;51.468;7.146;2023-03-14T10:45:31;1.15;;;1.00;;
53313;SDS011;39202;51.468;7.146;2023-03-14T10:50:35;1.05;;;0.93;;
53313;SDS011;39202;51.468;7.146;2023-03-14T10:55:41;0.80;;;0.80;;
53313;SDS011;39202;51.468;7.146;2023-03-14T11:00:45;0.70;;;0.70;;
53313;SDS011;39202;51.468;7.146;2023-03-14T11:05:53;1.13;;;0.80;;
53313;SDS011;39202;51.468;7.146;2023-03-14T11:11:02;1.17;;;0.80;;
53313;SDS011;39202;51.468;7.146;2023-03-14T11:16:14;1.15;;;1.02;;
53313;SDS011;39202;51.468;7.146;2023-03-14T11:21:23;0.90;;;0.90;;
53313;SDS011;39202;51.468;7.146;2023-03-14T11:26:32;1.00;;;0.85;;
53313;SDS011;39202;51.468;7.146;2023-03-14T11:31:38;1.13;;;0.98;;
53313;SDS011;39202;51.468;7.146;2023-03-14T11:36:46;0.90;;;0.73;;
53313;SDS011;39202;51.468;7.146;2023-03-14T11:41:53;0.85;;;0.85;;
53313;SDS011;39202;51.468;7.146;2023-03-14T11:46:59;0.80;;;0.80;;
53313;SDS011;39202;51.468;7.146;2023-03-14T11:52:10;0.90;;;0.90;;
53313;SDS011;39202;51.468;7.146;2023-03-14T11:57:21;0.70;;;0.70;;
53313;SDS011;39202;51.468;7.146;2023-03-14T12:02:25;0.88;;;0.80;;
53313;SDS011;39202;51.468;7.146;2023-03-14T12:07:37;0.80;;;0.80;;
53313;SDS011;39202;51.468;7.146;2023-03-14T12:12:45;1.25;;;1.10;;
53313;SDS011;39202;51.468;7.146;2023-03-14T12:17:52;0.80;;;0.80;;
53313;SDS011;39202;51.468;7.146;2023-03-14T12:22:57;3.00;;;1.10;;
53313;SDS011;39202;51.468;7.146;2023-03-14T12:28:13;0.90;;;0.90;;
53313;SDS011;39202;51.468;7.146;2023-03-14T12:44:37;0.95;;;0.70;;
53313;SDS011;39202;51.468;7.146;2023-03-14T12:49:44;0.98;;;0.80;;
53313;SDS011;39202;51.468;7.146;2023-03-14T12:54:49;0.95;;;0.90;;
53313;SDS011;39202;51.468;7.146;2023-03-14T12:59:55;0.90;;;0.90;;
53313;SDS011;39202;51.468;7.146;2023-03-14T13:05:02;0.80;;;0.80;;
53313;SDS011;39202;51.468;7.146;2023-03-14T13:10:19;0.85;;;0.85;;
53313;SDS011;39202;51.468;7.146;2023-03-14T13:15:26;0.93;;;0.90;;
53313;SDS011;39202;51.468;7.146;2023-03-14T13:20:31;0.80;;;0.80;;
53313;SDS011;39202;51.468;7.146;2023-03-14T13:25:37;1.95;;;0.95;;
53313;SDS011;39202;51.468;7.146;2023-03-14T13:30:40;1.50;;;0.90;;
53313;SDS011;39202;51.468;7.146;2023-03-14T13:35:44;0.70;;;0.70;;
53313;SDS011;39202;51.468;7.146;2023-03-14T13:40:48;1.73;;;0.80;;
53313;SDS011;39202;51.468;7.146;2023-03-14T13:45:51;0.80;;;0.80;;
53313;SDS011;39202;51.468;7.146;2023-03-14T13:50:56;0.65;;;0.65;;
53313;SDS011;39202;51.468;7.146;2023-03-14T13:56:03;1.52;;;0.80;;
53313;SDS011;39202;51.468;7.146;2023-03-14T14:01:06;0.80;;;0.80;;
53313;SDS011;39202;51.468;7.146;2023-03-14T14:06:19;0.85;;;0.70;;
53313;SDS011;39202;51.468;7.146;2023-03-14T14:11:40;0.70;;;0.70;;
53313;SDS011;39202;51.468;7.146;2023-03-14T14:16:44;1.98;;;0.98;;
53313;SDS011;39202;51.468;7.146;2023-03-14T14:21:47;0.70;;;0.70;;
53313;SDS011;39202;51.468;7.146;2023-03-14T14:26:51;0.68;;;0.68;;
53313;SDS011;39202;51.468;7.146;2023-03-14T14:32:01;2.15;;;0.70;;
53313;SDS011;39202;51.468;7.146;2023-03-14T14:37:04;0.68;;;0.68;;
53313;SDS011;39202;51.468;7.146;2023-03-14T14:42:13;0.88;;;0.80;;
53313;SDS011;39202;51.468;7.146;2023-03-14T14:47:18;1.00;;;0.63;;
53313;SDS011;39202;51.468;7.146;2023-03-14T14:52:22;0.73;;;0.73;;
53313;SDS011;39202;51.468;7.146;2023-03-14T14:57:37;0.88;;;0.88;;
53313;SDS011;39202;51.468;7.146;2023-03-14T15:02:44;0.77;;;0.77;;
53313;SDS011;39202;51.468;7.146;2023-03-14T15:07:48;0.70;;;0.70;;
53313;SDS011;39202;51.468;7.146;2023-03-14T15:12:51;1.85;;;1.10;;
53313;SDS011;39202;51.468;7.146;2023-03-14T15:17:53;0.70;;;0.70;;
53313;SDS011;39202;51.468;7.146;2023-03-14T15:22:54;0.80;;;0.80;;
53313;SDS011;39202;51.468;7.146;2023-03-14T15:27:58;0.50;;;0.50;;
53313;SDS011;39202;51.468;7.146;2023-03-14T15:32:59;0.60;;;0.60;;
53313;SDS011;39202;51.468;7.146;2023-03-14T15:38:01;1.95;;;0.73;;
53313;SDS011;39202;51.468;7.146;2023-03-14T15:43:05;0.70;;;0.70;;
53313;SDS011;39202;51.468;7.146;2023-03-14T15:48:08;0.65;;;0.65;;
53313;SDS011;39202;51.468;7.146;2023-03-14T15:53:15;0.60;;;0.60;;
53313;SDS011;39202;51.468;7.146;2023-03-14T15:58:18;0.60;;;0.60;;
53313;SDS011;39202;51.468;7.146;2023-03-14T16:03:21;1.30;;;0.60;;
53313;SDS011;39202;51.468;7.146;2023-03-14T16:08:23;0.47;;;0.47;;
53313;SDS011;39202;51.468;7.146;2023-03-14T16:13:27;0.63;;;0.63;;
53313;SDS011;39202;51.468;7.146;2023-03-14T16:18:30;0.70;;;0.70;;
53313;SDS011;39202;51.468;7.146;2023-03-14T16:23:34;0.90;;;0.73;;
53313;SDS011;39202;51.468;7.146;2023-03-14T16:28:37;2.05;;;0.65;;
53313;SDS011;39202;51.468;7.146;2023-03-14T16:33:39;0.60;;;0.60;;
53313;SDS011;39202;51.468;7.146;2023-03-14T16:38:42;0.63;;;0.60;;
53313;SDS011;39202;51.468;7.146;2023-03-14T16:43:46;1.00;;;0.68;;
53313;SDS011;39202;51.468;7.146;2023-03-14T16:48:50;0.95;;;0.80;;
53313;SDS011;39202;51.468;7.146;2023-03-14T16:53:52;1.45;;;0.85;;
53313;SDS011;39202;51.468;7.146;2023-03-14T16:58:55;0.70;;;0.70;;
53313;SDS011;39202;51.468;7.146;2023-03-14T17:03:57;0.68;;;0.68;;
53313;SDS011;39202;51.468;7.146;2023-03-14T17:08:59;1.35;;;0.70;;
53313;SDS011;39202;51.468;7.146;2023-03-14T17:14:04;0.60;;;0.60;;
53313;SDS011;39202;51.468;7.146;2023-03-14T17:19:06;0.50;;;0.50;;
53313;SDS011;39202;51.468;7.146;2023-03-14T17:24:08;0.70;;;0.70;;
53313;SDS011;39202;51.468;7.146;2023-03-14T17:29:11;0.60;;;0.60;;
53313;SDS011;39202;51.468;7.146;2023-03-14T17:34:13;0.50;;;0.50;;
53313;SDS011;39202;51.468;7.146;2023-03-14T17:39:14;0.80;;;0.68;;
53313;SDS011;39202;51.468;7.146;2023-03-14T17:44:18;0.70;;;0.70;;
53313;SDS011;39202;51.468;7.146;2023-03-14T17:49:19;0.60;;;0.60;;
53313;SDS011;39202;51.468;7.146;2023-03-14T17:54:21;0.60;;;0.60;;
53313;SDS011;39202;51.468;7.146;2023-03-14T17:59:24;0.50;;;0.50;;
53313;SDS011;39202;51.468;7.146;2023-03-14T18:04:26;0.50;;;0.50;;
53313;SDS011;39202;51.468;7.146;2023-03-14T18:09:28;0.60;;;0.60;;
53313;SDS011;39202;51.468;7.146;2023-03-14T18:14:31;0.40;;;0.40;;
53313;SDS011;39202;51.468;7.146;2023-03-14T18:19:33;0.50;;;0.50;;
53313;SDS011;39202;51.468;7.146;2023-03-14T18:24:35;0.60;;;0.60;;
53313;SDS011;39202;51.468;7.146;2023-03-14T18:29:38;0.63;;;0.60;;
53313;SDS011;39202;51.468;7.146;2023-03-14T18:34:41;0.75;;;0.75;;
53313;SDS011;39202;51.468;7.146;2023-03-14T18:39:42;0.90;;;0.80;;
53313;SDS011;39202;51.468;7.146;2023-03-14T18:44:45;0.68;;;0.68;;
53313;SDS011;39202;51.468;7.146;2023-03-14T18:49:47;1.05;;;0.77;;
53313;SDS011;39202;51.468;7.146;2023-03-14T18:54:49;0.70;;;0.68;;
53313;SDS011;39202;51.468;7.146;2023-03-14T18:59:52;1.73;;;0.93;;
53313;SDS011;39202;51.468;7.146;2023-03-14T19:04:57;0.70;;;0.63;;
53313;SDS011;39202;51.468;7.146;2023-03-14T19:09:59;0.70;;;0.70;;
53313;SDS011;39202;51.468;7.146;2023-03-14T19:15:02;0.70;;;0.70;;
53313;SDS011;39202;51.468;7.146;2023-03-14T19:20:05;0.70;;;0.70;;
53313;SDS011;39202;51.468;7.146;2023-03-14T19:25:08;0.60;;;0.60;;
53313;SDS011;39202;51.468;7.146;2023-03-14T19:30:12;0.95;;;0.70;;
53313;SDS011;39202;51.468;7.146;2023-03-14T19:35:14;0.60;;;0.60;;
53313;SDS011;39202;51.468;7.146;2023-03-14T19:40:16;0.60;;;0.60;;
53313;SDS011;39202;51.468;7.146;2023-03-14T19:45:19;0.70;;;0.70;;
53313;SDS011;39202;51.468;7.146;2023-03-14T19:50:22;0.55;;;0.55;;
53313;SDS011;39202;51.468;7.146;2023-03-14T19:55:24;0.68;;;0.65;;
53313;SDS011;39202;51.468;7.146;2023-03-14T20:00:28;0.60;;;0.60;;
53313;SDS011;39202;51.468;7.146;2023-03-14T20:05:30;0.60;;;0.60;;
53313;SDS011;39202;51.468;7.146;2023-03-14T20:10:34;0.60;;;0.60;;
53313;SDS011;39202;51.468;7.146;2023-03-14T20:15:37;0.60;;;0.60;;
53313;SDS011;39202;51.468;7.146;2023-03-14T20:20:39;0.60;;;0.60;;
53313;SDS011;39202;51.468;7.146;2023-03-14T20:25:41;0.93;;;0.57;;
53313;SDS011;39202;51.468;7.146;2023-03-14T20:30:46;0.50;;;0.50;;
53313;SDS011;39202;51.468;7.146;2023-03-14T20:35:58;0.60;;;0.60;;
53313;SDS011;39202;51.468;7.146;2023-03-14T20:41:00;0.73;;;0.70;;
53313;SDS011;39202;51.468;7.146;2023-03-14T20:46:04;0.70;;;0.70;;
53313;SDS011;39202;51.468;7.146;2023-03-14T20:51:06;0.50;;;0.50;;
53313;SDS011;39202;51.468;7.146;2023-03-14T20:56:08;0.60;;;0.60;;
53313;SDS011;39202;51.468;7.146;2023-03-14T21:01:11;0.60;;;0.60;;
53313;SDS011;39202;51.468;7.146;2023-03-14T21:06:13;0.60;;;0.60;;
53313;SDS011;39202;51.468;7.146;2023-03-14T21:11:14;0.57;;;0.52;;
53313;SDS011;39202;51.468;7.146;2023-03-14T21:16:17;0.60;;;0.60;;
53313;SDS011;39202;51.468;7.146;2023-03-14T21:21:19;0.60;;;0.60;;
53313;SDS011;39202;51.468;7.146;2023-03-14T21:26:21;0.60;;;0.60;;
53313;SDS011;39202;51.468;7.146;2023-03-14T21:31:24;0.60;;;0.60;;
53313;SDS011;39202;51.468;7.146;2023-03-14T21:36:26;0.65;;;0.65;;
53313;SDS011;39202;51.468;7.146;2023-03-14T21:41:28;0.47;;;0.47;;
53313;SDS011;39202;51.468;7.146;2023-03-14T21:46:31;0.70;;;0.70;;
53313;SDS011;39202;51.468;7.146;2023-03-14T21:51:35;0.60;;;0.60;;
53313;SDS011;39202;51.468;7.146;2023-03-14T21:56:37;0.50;;;0.50;;
53313;SDS011;39202;51.468;7.146;2023-03-14T22:01:40;0.40;;;0.40;;
53313;SDS011;39202;51.468;7.146;2023-03-14T22:06:42;0.45;;;0.45;;
53313;SDS011;39202;51.468;7.146;2023-03-14T22:11:44;0.40;;;0.40;;
53313;SDS011;39202;51.468;7.146;2023-03-14T22:16:47;0.60;;;0.60;;
53313;SDS011;39202;51.468;7.146;2023-03-14T22:21:48;0.50;;;0.50;;
53313;SDS011;39202;51.468;7.146;2023-03-14T22:26:50;0.77;;;0.70;;
53313;SDS011;39202;51.468;7.146;2023-03-14T22:31:55;0.50;;;0.50;;
53313;SDS011;39202;51.468;7.146;2023-03-14T22:36:56;1.35;;;0.75;;
53313;SDS011;39202;51.468;7.146;2023-03-14T22:41:58;0.57;;;0.57;;
53313;SDS011;39202;51.468;7.146;2023-03-14T22:47:02;0.60;;;0.60;;
53313;SDS011;39202;51.468;7.146;2023-03-14T22:52:04;0.60;;;0.60;;
53313;SDS011;39202;51.468;7.146;2023-03-14T22:57:06;0.57;;;0.57;;
53313;SDS011;39202;51.468;7.146;2023-03-14T23:02:09;0.50;;;0.50;;
53313;SDS011;39202;51.468;7.146;2023-03-14T23:07:11;0.43;;;0.43;;
53313;SDS011;39202;51.468;7.146;2023-03-14T23:12:13;0.40;;;0.40;;
53313;SDS011;39202;51.468;7.146;2023-03-14T23:17:17;0.50;;;0.50;;
53313;SDS011;39202;51.468;7.146;2023-03-14T23:22:19;0.50;;;0.50;;
53313;SDS011;39202;51.468;7.146;2023-03-14T23:27:21;0.45;;;0.45;;
53313;SDS011;39202;51.468;7.146;2023-03-14T23:32:24;0.50;;;0.50;;
53313;SDS011;39202;51.468;7.146;2023-03-14T23:37:26;0.50;;;0.50;;
53313;SDS011;39202;51.468;7.146;2023-03-14T23:42:31;0.52;;;0.52;;
53313;SDS011;39202;51.468;7.146;2023-03-14T23:47:34;0.60;;;0.60;;
53313;SDS011;39202;51.468;7.146;2023-03-14T23:52:35;0.47;;;0.47;;
53313;SDS011;39202;51.468;7.146;2023-03-14T23:57:37;0.40;;;0.40;;
